Time;durP1;ratioP1;P1;durP2;ratioP2;P2;SDS_P1;SDS_P2;PMS_P1;PMS_P2;Temp;Humidity;BMP_temperature;BMP_pressure;BME280_temperature;BME280_humidity;BME280_pressure;Samples;Min_cycle;Max_cycle;Signal;HPM_P1;HPM_P2
2022/03/22 00:01:48;;;;;;;13.40;4.43;;;;;;;4.83;48.56;101126.63;4936823;29;20375;-63
2022/03/22 00:04:16;;;;;;;13.50;4.45;;;;;;;4.80;48.49;101126.31;4939016;29;20054;-62
2022/03/22 00:06:43;;;;;;;10.25;4.50;;;;;;;4.79;48.60;101125.47;4918097;29;20142;-63
2022/03/22 00:09:10;;;;;;;22.48;5.00;;;;;;;4.77;48.11;101127.66;4938910;29;20051;-63
2022/03/22 00:11:37;;;;;;;14.25;4.88;;;;;;;4.76;48.29;101131.50;4936656;29;20056;-62
2022/03/22 00:14:08;;;;;;;19.30;5.85;;;;;;;4.68;48.51;101134.69;4921411;29;20106;-63
2022/03/22 00:16:36;;;;;;;21.23;5.07;;;;;;;4.65;48.90;101128.88;4936653;29;20142;-64
2022/03/22 00:19:23;;;;;;;12.50;5.13;;;;;;;4.65;48.52;101129.69;4934912;29;20063;-61
2022/03/22 00:21:50;;;;;;;13.88;4.38;;;;;;;4.68;48.94;101128.38;4933637;29;20146;-65
2022/03/22 00:24:17;;;;;;;17.30;4.90;;;;;;;4.71;48.73;101128.69;4935462;29;20146;-67
2022/03/22 00:26:44;;;;;;;12.93;4.88;;;;;;;4.72;48.81;101124.84;4933572;29;20138;-62
2022/03/22 00:29:11;;;;;;;21.85;4.65;;;;;;;4.71;49.06;101125.91;4935638;29;20052;-63
2022/03/22 00:31:39;;;;;;;21.98;6.00;;;;;;;4.69;49.20;101122.59;4933421;29;20058;-63
2022/03/22 00:34:06;;;;;;;18.88;4.80;;;;;;;4.67;48.88;101116.50;4935716;29;20102;-62
2022/03/22 00:36:34;;;;;;;19.15;4.43;;;;;;;4.68;48.92;101118.16;4921570;29;20062;-63
2022/03/22 00:39:02;;;;;;;18.83;4.57;;;;;;;4.67;49.11;101115.66;4924490;29;20126;-62
2022/03/22 00:41:29;;;;;;;19.50;5.25;;;;;;;4.68;48.95;101123.66;4917243;29;20405;-66
2022/03/22 00:43:57;;;;;;;14.20;5.18;;;;;;;4.70;48.72;101115.16;4935149;29;20047;-66
2022/03/22 00:46:24;;;;;;;18.23;4.57;;;;;;;4.72;49.27;101108.31;4934434;29;20067;-66
2022/03/22 00:48:51;;;;;;;13.93;4.10;;;;;;;4.72;49.17;101107.47;4916919;29;20052;-66
2022/03/22 00:51:20;;;;;;;14.52;4.25;;;;;;;4.66;49.34;101106.59;4935524;29;20456;-66
2022/03/22 00:53:47;;;;;;;15.05;4.70;;;;;;;4.69;49.17;101100.56;4933405;29;20051;-66
2022/03/22 00:56:14;;;;;;;17.02;4.95;;;;;;;4.74;49.00;101094.28;4935250;29;20130;-67
2022/03/22 00:58:41;;;;;;;11.77;4.05;;;;;;;4.74;48.66;101095.09;4933001;29;20051;-68
2022/03/22 01:01:08;;;;;;;17.63;5.25;;;;;;;4.75;48.80;101096.78;4935051;29;20473;-67
2022/03/22 01:03:36;;;;;;;16.27;4.15;;;;;;;4.72;49.29;101088.19;4932780;29;20107;-67
2022/03/22 01:06:04;;;;;;;17.45;4.47;;;;;;;4.73;49.01;101096.19;4906348;29;20063;-63
2022/03/22 01:08:31;;;;;;;23.83;5.10;;;;;;;4.73;49.21;101093.44;4917365;29;20749;-63
2022/03/22 01:10:58;;;;;;;19.63;4.30;;;;;;;4.79;49.19;101081.38;4917321;29;20052;-63
2022/03/22 01:13:30;;;;;;;16.77;4.32;;;;;;;4.82;49.20;101097.41;4912445;29;20064;-63
2022/03/22 01:15:58;;;;;;;22.30;4.93;;;;;;;4.79;48.78;101092.41;4934816;29;20134;-63
2022/03/22 01:18:25;;;;;;;10.27;4.05;;;;;;;4.77;48.91;101100.09;4932652;29;20062;-62
2022/03/22 01:20:52;;;;;;;16.33;5.00;;;;;;;4.76;49.12;101098.44;4934667;29;20079;-62
2022/03/22 01:23:19;;;;;;;14.38;4.65;;;;;;;4.78;48.98;101101.78;4932633;29;20048;-63
2022/03/22 01:25:48;;;;;;;18.75;4.43;;;;;;;4.71;49.15;101095.59;4914071;29;20086;-66
2022/03/22 01:28:15;;;;;;;14.30;5.15;;;;;;;4.71;48.80;101101.13;4916881;29;20044;-67
2022/03/22 01:30:43;;;;;;;16.40;3.92;;;;;;;4.70;48.94;101088.44;4932956;29;20079;-67
2022/03/22 01:33:14;;;;;;;11.35;4.18;;;;;;;4.68;49.13;101107.13;4934337;29;20431;-67
2022/03/22 01:35:42;;;;;;;12.15;3.80;;;;;;;4.67;49.06;101099.13;4921745;29;20102;-67
2022/03/22 01:38:09;;;;;;;10.52;3.63;;;;;;;4.67;48.96;101105.47;4934213;29;20044;-67
2022/03/22 01:40:37;;;;;;;16.27;4.00;;;;;;;4.67;48.92;101099.97;4932842;29;20087;-67
2022/03/22 01:43:05;;;;;;;13.50;3.92;;;;;;;4.67;49.20;101099.97;4917538;29;20056;-67
2022/03/22 01:45:32;;;;;;;15.85;4.07;;;;;;;4.68;48.60;101096.13;4931766;29;20138;-63
2022/03/22 01:48:02;;;;;;;8.93;4.28;;;;;;;4.69;48.80;101095.03;4934265;29;20059;-63
2022/03/22 01:50:29;;;;;;;10.48;4.03;;;;;;;4.74;48.08;101095.09;4931906;29;20102;-62
2022/03/22 01:52:58;;;;;;;8.25;3.63;;;;;;;4.79;48.00;101095.16;4928463;29;20500;-63
2022/03/22 01:55:25;;;;;;;8.43;3.20;;;;;;;4.77;47.75;101091.81;4930112;29;20055;-63
2022/03/22 01:57:52;;;;;;;11.00;3.60;;;;;;;4.76;47.42;101092.06;4933742;29;20135;-63
2022/03/22 02:00:20;;;;;;;13.23;4.20;;;;;;;4.74;47.24;101078.53;4919106;29;20059;-62
2022/03/22 02:05:51;;;;;;;11.70;3.72;;;;;;;4.77;47.35;101083.53;4927612;29;20052;-63
2022/03/22 02:08:20;;;;;;;11.32;3.88;;;;;;;4.74;47.05;101074.97;4916625;29;20047;-63
2022/03/22 02:10:47;;;;;;;21.20;4.45;;;;;;;4.71;47.30;101076.31;4916595;29;20062;-62
2022/03/22 02:13:15;;;;;;;10.40;3.80;;;;;;;4.69;47.48;101075.75;4916516;29;20063;-63
2022/03/22 02:15:45;;;;;;;7.00;3.10;;;;;;;4.68;47.16;101079.56;4916449;29;20055;-63
2022/03/22 02:18:12;;;;;;;11.05;4.55;;;;;;;4.68;47.16;101071.31;4916651;29;20377;-63
2022/03/22 02:20:39;;;;;;;12.20;4.22;;;;;;;4.69;46.63;101078.50;4916067;29;20139;-64
2022/03/22 02:23:14;;;;;;;12.50;3.22;;;;;;;4.70;46.33;101060.03;4916215;29;20048;-64
2022/03/22 02:25:41;;;;;;;6.75;2.95;;;;;;;4.63;46.31;101074.03;4915067;29;20056;-63
2022/03/22 02:28:10;;;;;;;9.48;3.75;;;;;;;4.62;46.47;101069.56;4933622;29;20071;-63
2022/03/22 02:30:37;;;;;;;7.82;3.25;;;;;;;4.61;45.90;101070.69;4931705;29;20138;-63
2022/03/22 02:33:05;;;;;;;10.73;2.92;;;;;;;4.61;45.54;101058.81;4933583;29;20172;-66
2022/03/22 02:35:32;;;;;;;9.57;3.13;;;;;;;4.61;45.54;101067.91;4914551;29;20138;-66
2022/03/22 02:37:59;;;;;;;14.05;3.88;;;;;;;4.61;44.98;101072.59;4933389;29;20074;-68
2022/03/22 02:40:26;;;;;;;11.50;3.50;;;;;;;4.60;44.58;101066.28;4904817;29;20056;-67
2022/03/22 02:42:56;;;;;;;10.15;3.40;;;;;;;4.58;44.99;101062.94;4915562;29;20131;-67
2022/03/22 02:45:24;;;;;;;9.20;4.07;;;;;;;4.58;44.72;101056.56;4895802;29;20092;-67
2022/03/22 02:47:51;;;;;;;11.60;4.00;;;;;;;4.55;44.76;101054.31;4928798;29;20139;-67
2022/03/22 02:50:18;;;;;;;6.03;3.20;;;;;;;4.52;44.67;101047.41;4927626;29;20079;-67
2022/03/22 02:52:45;;;;;;;7.55;3.60;;;;;;;4.51;44.57;101045.75;4930210;29;20067;-67
2022/03/22 02:55:12;;;;;;;11.52;3.65;;;;;;;4.48;44.46;101051.78;4927342;29;20507;-67
2022/03/22 02:57:40;;;;;;;12.98;4.10;;;;;;;4.42;44.90;101058.31;4932910;29;20047;-67
2022/03/22 03:00:09;;;;;;;10.32;3.58;;;;;;;4.34;45.26;101052.41;4932660;29;20197;-67
2022/03/22 03:02:45;;;;;;;13.07;4.18;;;;;;;4.36;44.81;101056.59;4915532;29;20119;-67
2022/03/22 03:05:13;;;;;;;16.58;4.45;;;;;;;4.39;44.38;101058.00;4931257;29;20523;-66
2022/03/22 03:07:40;;;;;;;16.42;4.53;;;;;;;4.41;44.52;101062.16;4932629;29;20079;-68
2022/03/22 03:10:08;;;;;;;10.25;4.55;;;;;;;4.40;44.36;101060.50;4933054;29;20048;-67
2022/03/22 03:12:36;;;;;;;14.30;4.60;;;;;;;4.39;44.15;101053.31;4931795;29;20139;-67
2022/03/22 03:15:05;;;;;;;15.25;3.78;;;;;;;4.40;44.31;101048.63;4933092;29;20106;-67
2022/03/22 03:17:33;;;;;;;10.02;3.60;;;;;;;4.37;44.31;101043.63;4931078;29;20059;-65
2022/03/22 03:20:01;;;;;;;14.85;4.00;;;;;;;4.35;44.25;101045.81;4932966;29;20062;-66
2022/03/22 03:22:29;;;;;;;11.02;3.70;;;;;;;4.32;44.42;101041.63;4930641;29;20048;-66
2022/03/22 03:24:56;;;;;;;8.38;3.40;;;;;;;4.32;44.48;101040.81;4933098;29;20142;-66
2022/03/22 03:27:23;;;;;;;12.05;4.55;;;;;;;4.28;44.14;101046.00;4910498;29;20044;-66
2022/03/22 03:29:50;;;;;;;13.07;4.00;;;;;;;4.28;44.28;101040.50;4919165;29;20104;-67
2022/03/22 03:32:17;;;;;;;7.80;3.70;;;;;;;4.19;44.35;101042.03;4928577;29;20429;-66
2022/03/22 03:34:44;;;;;;;9.38;3.85;;;;;;;4.18;44.49;101053.28;4932862;29;20110;-66
2022/03/22 03:37:11;;;;;;;10.23;4.10;;;;;;;4.17;44.46;101054.38;4930599;29;20112;-66
2022/03/22 03:39:40;;;;;;;19.38;4.78;;;;;;;4.16;44.58;101053.53;4932703;29;20118;-66
2022/03/22 03:42:08;;;;;;;13.05;4.10;;;;;;;4.20;44.57;101051.94;4930804;29;20047;-66
2022/03/22 03:47:23;;;;;;;10.48;4.20;;;;;;;4.13;44.41;101048.53;4914824;29;20112;-66
2022/03/22 03:49:55;;;;;;;11.82;3.50;;;;;;;4.16;44.59;101044.44;4915650;29;20095;-66
2022/03/22 03:52:25;;;;;;;9.07;3.70;;;;;;;4.14;44.66;101050.19;4915028;29;20062;-67
2022/03/22 03:54:53;;;;;;;16.85;3.38;;;;;;;4.10;45.04;101042.69;4918912;29;20044;-67
2022/03/22 03:57:21;;;;;;;11.48;3.63;;;;;;;4.12;44.69;101041.38;4918412;29;20083;-66
2022/03/22 03:59:49;;;;;;;8.65;3.63;;;;;;;4.15;44.46;101042.78;4918791;29;20040;-66
2022/03/22 04:02:17;;;;;;;19.48;4.38;;;;;;;4.20;44.63;101051.13;4918175;29;20052;-67
2022/03/22 04:04:51;;;;;;;9.48;3.03;;;;;;;4.22;44.50;101041.50;4918577;29;20119;-67
2022/03/22 04:07:21;;;;;;;12.82;4.20;;;;;;;4.25;44.46;101038.25;4930196;29;20146;-67
2022/03/22 04:09:49;;;;;;;11.48;3.80;;;;;;;4.23;44.63;101043.16;4936352;29;20065;-67
2022/03/22 04:12:16;;;;;;;16.38;4.15;;;;;;;4.23;44.54;101036.84;4933625;29;20098;-67
2022/03/22 04:14:44;;;;;;;12.52;4.28;;;;;;;4.25;44.46;101038.25;4935884;29;20082;-67
2022/03/22 04:17:11;;;;;;;12.77;3.80;;;;;;;4.27;44.37;101041.59;4934744;29;20047;-66
2022/03/22 04:19:38;;;;;;;8.48;3.88;;;;;;;4.25;44.36;101035.50;4915271;29;20096;-67
2022/03/22 04:22:06;;;;;;;9.30;4.05;;;;;;;4.28;44.39;101034.97;4918028;29;20056;-67
2022/03/22 04:24:34;;;;;;;10.95;3.38;;;;;;;4.28;44.05;101037.75;4922569;29;20135;-67
2022/03/22 04:32:41;;;;;;;7.70;2.92;;;;;;;4.47;43.97;101017.03;4933476;29;20107;-66
2022/03/22 04:35:19;;;;;;;11.73;2.97;;;;;;;4.47;44.18;101019.78;4935858;29;20051;-63
2022/03/22 04:37:49;;;;;;;15.85;3.42;;;;;;;4.55;44.05;101027.63;4933080;29;20051;-63
2022/03/22 04:40:17;;;;;;;9.73;3.22;;;;;;;4.64;43.84;101028.81;4935235;29;20079;-63
2022/03/22 04:42:44;;;;;;;7.38;3.53;;;;;;;4.75;43.86;101036.13;4933332;29;20054;-64
2022/03/22 04:45:11;;;;;;;13.38;2.90;;;;;;;4.83;43.76;101030.13;4935242;29;20091;-64
2022/03/22 04:47:39;;;;;;;12.75;4.35;;;;;;;4.99;43.20;101031.97;4933120;29;20143;-63
2022/03/22 04:50:07;;;;;;;10.00;3.30;;;;;;;5.14;43.48;101023.84;4935113;29;20051;-63
2022/03/22 04:58:06;;;;;;;25.77;3.88;;;;;;;5.42;42.77;101026.31;4934672;29;20055;-63
2022/03/22 05:00:36;;;;;;;12.77;3.63;;;;;;;5.53;42.60;101028.06;4934469;29;20047;-63
2022/03/22 05:03:04;;;;;;;8.52;3.78;;;;;;;5.62;43.03;101029.25;4917759;29;20576;-63
2022/03/22 05:08:16;;;;;;;16.55;3.60;;;;;;;5.81;42.70;101031.59;4915146;29;20147;-63
2022/03/22 05:10:43;;;;;;;9.73;3.00;;;;;;;5.96;42.58;101021.53;4917580;29;20052;-63
2022/03/22 05:13:11;;;;;;;9.90;3.08;;;;;;;6.10;42.62;101016.38;4914132;29;20116;-64
2022/03/22 05:15:38;;;;;;;13.15;4.28;;;;;;;6.21;41.84;101023.59;4917671;29;20574;-63
2022/03/22 05:18:05;;;;;;;12.65;3.20;;;;;;;6.37;41.47;101026.16;4917774;29;20087;-64
2022/03/22 05:20:32;;;;;;;10.68;3.08;;;;;;;6.65;41.13;101020.22;4917567;29;20499;-62
2022/03/22 05:23:00;;;;;;;10.52;3.13;;;;;;;7.25;39.86;101016.75;4932652;29;20063;-63
2022/03/22 05:25:31;;;;;;;9.82;3.13;;;;;;;7.88;38.65;101021.75;4935175;29;20511;-63
2022/03/22 05:28:03;;;;;;;14.77;3.30;;;;;;;8.61;37.50;101012.69;4932137;29;20507;-63
2022/03/22 05:30:31;;;;;;;8.48;3.10;;;;;;;9.74;35.21;101015.28;4934687;29;20106;-66
2022/03/22 05:32:59;;;;;;;15.05;3.45;;;;;;;10.19;34.82;101012.09;4932153;29;20142;-64
2022/03/22 05:35:27;;;;;;;12.75;3.92;;;;;;;10.62;33.77;101019.34;4934667;29;20094;-63
2022/03/22 05:37:54;;;;;;;10.73;5.20;;;;;;;10.96;33.03;101017.25;4932206;29;20054;-63
2022/03/22 05:40:21;;;;;;;10.10;3.47;;;;;;;11.73;32.50;101022.22;4924838;29;20138;-64
2022/03/22 05:42:48;;;;;;;11.35;3.40;;;;;;;11.97;31.63;101017.34;4916343;29;20080;-64
2022/03/22 05:45:15;;;;;;;9.43;3.90;;;;;;;11.74;31.67;101021.09;4916943;29;20098;-62
2022/03/22 05:47:43;;;;;;;13.32;3.63;;;;;;;11.96;31.58;101021.25;4916287;29;21314;-63
2022/03/22 05:50:10;;;;;;;7.35;3.42;;;;;;;11.04;32.82;101030.47;4916976;29;20047;-63
2022/03/22 05:52:45;;;;;;;14.07;4.07;;;;;;;11.25;33.21;101014.34;4918011;29;20060;-63
2022/03/22 05:55:13;;;;;;;10.65;3.75;;;;;;;12.94;30.46;101015.91;4925998;29;20228;-64
2022/03/22 05:57:40;;;;;;;11.63;3.83;;;;;;;14.63;27.60;101008.31;4931893;29;20142;-62
2022/03/22 06:00:09;;;;;;;16.60;4.10;;;;;;;14.41;27.87;101005.59;4934032;29;20543;-63
2022/03/22 06:02:38;;;;;;;11.18;3.22;;;;;;;12.86;29.78;100999.91;4914932;29;20098;-63
2022/03/22 06:05:09;;;;;;;17.52;5.40;;;;;;;12.84;29.70;100999.41;4933361;29;20055;-63
2022/03/22 06:07:38;;;;;;;9.27;3.47;;;;;;;13.93;28.38;100993.44;4927769;29;20078;-64
2022/03/22 06:10:07;;;;;;;11.82;3.80;;;;;;;14.94;26.76;100997.84;4933888;29;20142;-62
2022/03/22 06:12:38;;;;;;;13.50;4.13;;;;;;;14.86;26.93;100990.25;4931658;29;20147;-62
2022/03/22 06:15:15;;;;;;;10.57;3.30;;;;;;;14.04;27.44;100986.44;4913899;29;20253;-62
2022/03/22 06:17:57;;;;;;;11.70;3.80;;;;;;;13.96;28.29;100990.00;4915446;29;20052;-63
2022/03/22 06:20:26;;;;;;;12.27;2.85;;;;;;;16.28;25.53;100985.25;4908502;29;20044;-63
2022/03/22 06:22:55;;;;;;;10.68;2.40;;;;;;;18.63;22.72;100986.06;4914897;29;20063;-62
2022/03/22 06:25:23;;;;;;;15.95;3.63;;;;;;;18.76;22.55;100978.41;4933189;29;20094;-63
2022/03/22 06:27:52;;;;;;;10.95;3.28;;;;;;;19.32;21.72;100975.44;4921350;29;20111;-63
2022/03/22 06:30:20;;;;;;;20.98;3.75;;;;;;;20.16;20.90;100979.94;4903012;29;20500;-62
2022/03/22 06:33:07;;;;;;;6.78;2.92;;;;;;;22.16;19.04;100975.41;4928400;29;20055;-62
2022/03/22 06:35:34;;;;;;;8.82;3.55;;;;;;;22.94;18.23;100979.28;4925232;29;20056;-63
2022/03/22 06:38:02;;;;;;;8.90;2.97;;;;;;;22.80;18.14;100978.25;4930081;29;20082;-62
2022/03/22 06:40:33;;;;;;;10.30;3.20;;;;;;;22.34;18.52;100971.72;4927904;29;20551;-64
2022/03/22 06:43:04;;;;;;;11.27;3.67;;;;;;;21.23;19.49;100976.66;4912383;29;20056;-64
2022/03/22 06:45:35;;;;;;;18.00;3.40;;;;;;;21.47;19.07;100973.56;4933094;29;20081;-62
2022/03/22 06:48:03;;;;;;;11.80;3.03;;;;;;;22.22;17.99;100969.06;4898392;29;20056;-63
2022/03/22 06:50:31;;;;;;;13.63;3.08;;;;;;;22.78;17.14;100964.44;4933117;29;20138;-63
2022/03/22 06:52:58;;;;;;;6.93;2.60;;;;;;;20.29;18.83;100970.22;4931090;29;20045;-63
2022/03/22 06:55:25;;;;;;;7.25;3.17;;;;;;;18.44;20.63;100963.25;4933144;29;20489;-62
2022/03/22 06:57:56;;;;;;;8.02;3.65;;;;;;;18.79;20.55;100972.91;4930947;29;20056;-62
2022/03/22 07:00:27;;;;;;;9.45;2.47;;;;;;;18.73;20.47;100963.03;4933108;29;20099;-62
2022/03/22 07:02:55;;;;;;;17.40;3.20;;;;;;;20.15;19.22;100969.00;4930865;29;20063;-62
2022/03/22 07:05:23;;;;;;;13.88;3.55;;;;;;;19.37;19.78;100957.44;4929790;29;20052;-63
2022/03/22 07:07:50;;;;;;;14.77;3.08;;;;;;;18.84;20.23;100961.38;4927173;29;20538;-63
2022/03/22 07:10:18;;;;;;;8.75;3.10;;;;;;;18.66;20.55;100957.16;4933240;29;20542;-63
2022/03/22 07:12:54;;;;;;;8.20;2.75;;;;;;;18.89;20.51;100951.88;4930492;29;20051;-62
2022/03/22 07:15:29;;;;;;;13.80;2.80;;;;;;;19.98;18.74;100949.53;4932645;29;20064;-63
2022/03/22 07:18:00;;;;;;;15.75;3.35;;;;;;;21.63;17.16;100945.97;4931031;29;20063;-62
2022/03/22 07:20:28;;;;;;;9.40;2.95;;;;;;;22.70;16.13;100939.97;4932850;29;20087;-63
2022/03/22 07:22:59;;;;;;;10.38;2.40;;;;;;;23.10;15.70;100933.72;4930561;29;20067;-64
2022/03/22 07:25:26;;;;;;;13.20;2.97;;;;;;;22.31;16.17;100941.28;4932891;29;20051;-63
2022/03/22 07:27:54;;;;;;;7.03;3.22;;;;;;;21.70;16.55;100940.47;4932790;29;20056;-62
2022/03/22 07:30:22;;;;;;;10.77;2.80;;;;;;;21.09;16.81;100934.69;4929051;29;20110;-63
2022/03/22 07:32:49;;;;;;;10.07;3.60;;;;;;;22.34;15.95;100932.03;4934439;29;20138;-64
2022/03/22 07:35:20;;;;;;;9.75;2.75;;;;;;;24.97;13.92;100937.50;4936528;29;20463;-63
2022/03/22 07:37:48;;;;;;;10.48;2.33;;;;;;;27.78;12.28;100935.97;4934795;29;20048;-64
2022/03/22 07:40:16;;;;;;;12.25;2.83;;;;;;;26.76;12.01;100947.59;4915633;29;20048;-63
2022/03/22 07:42:44;;;;;;;8.85;2.40;;;;;;;24.72;13.12;100945.84;4918741;29;20148;-63
2022/03/22 07:45:11;;;;;;;23.85;8.60;;;;;;;23.63;13.68;100937.31;4918920;29;20150;-63
2022/03/22 07:47:40;;;;;;;10.07;3.10;;;;;;;23.85;13.65;100934.34;4919059;29;20562;-62
2022/03/22 07:53:05;;;;;;;8.05;3.00;;;;;;;23.32;13.83;100945.03;4933717;29;20090;-63
2022/03/22 07:55:33;;;;;;;;;;;;;;;22.02;14.79;100941.16;4936444;29;20051;-62
2022/03/22 07:58:01;;;;;;;9.38;2.15;;;;;;;21.47;15.07;100950.91;4933977;29;20081;-63
2022/03/22 08:00:30;;;;;;;7.55;2.28;;;;;;;21.36;15.15;100953.50;4935790;29;20052;-62
2022/03/22 08:03:03;;;;;;;7.32;2.22;;;;;;;21.51;15.03;100948.97;4933934;29;20052;-62
2022/03/22 08:05:32;;;;;;;15.27;3.03;;;;;;;22.33;14.82;100955.09;4931937;29;20135;-62
2022/03/22 08:07:59;;;;;;;15.67;2.97;;;;;;;22.31;14.63;100944.13;4929960;29;20080;-63
2022/03/22 08:10:47;;;;;;;8.40;2.45;;;;;;;22.70;14.59;100934.31;4935951;29;20056;-63
2022/03/22 08:13:14;;;;;;;7.60;2.63;;;;;;;23.96;13.97;100923.13;4933594;29;20056;-63
2022/03/22 08:15:41;;;;;;;9.00;2.28;;;;;;;24.33;13.71;100921.06;4935952;29;20055;-63
2022/03/22 08:18:10;;;;;;;10.18;3.45;;;;;;;24.29;13.77;100921.03;4933826;29;20064;-63
2022/03/22 08:20:37;;;;;;;13.55;2.75;;;;;;;23.99;14.17;100908.97;4936083;29;20134;-63
2022/03/22 08:23:04;;;;;;;16.05;2.72;;;;;;;25.58;13.31;100908.97;4933526;29;20111;-64
2022/03/22 08:25:36;;;;;;;9.00;2.83;;;;;;;27.72;11.70;100909.03;4935892;29;20519;-63
2022/03/22 08:28:06;;;;;;;10.68;2.17;;;;;;;28.70;11.37;100901.88;4933435;29;20058;-63
2022/03/22 08:30:34;;;;;;;36.50;4.03;;;;;;;30.51;10.24;100902.94;4935932;29;20499;-61
2022/03/22 08:33:06;;;;;;;9.37;2.43;;;;;;;31.80;9.39;100899.69;4933505;29;20523;-62
2022/03/22 08:35:34;;;;;;;14.27;2.53;;;;;;;32.97;9.07;100886.19;4935950;29;20118;-62
2022/03/22 08:38:02;;;;;;;8.15;2.58;;;;;;;34.44;8.37;100898.34;4933344;29;20591;-62
2022/03/22 08:40:29;;;;;;;16.60;2.53;;;;;;;35.30;7.99;100892.88;4928422;29;20052;-63
2022/03/22 08:42:57;;;;;;;22.63;2.78;;;;;;;35.80;6.77;100881.06;4912004;29;20146;-63
2022/03/22 08:45:26;;;;;;;6.13;2.53;;;;;;;36.15;7.07;100868.09;4934622;29;20106;-62
2022/03/22 08:47:55;;;;;;;9.57;1.85;;;;;;;35.94;7.14;100865.25;4930786;29;20048;-63
2022/03/22 08:50:25;;;;;;;10.10;1.98;;;;;;;36.21;6.48;100854.59;4917091;29;20135;-62
2022/03/22 08:52:54;;;;;;;;;;;;;;;36.05;7.02;100854.81;4912803;29;20079;-61
2022/03/22 08:55:23;;;;;;;5.38;1.92;;;;;;;36.10;6.92;100854.22;4925382;29;19927;-62
2022/03/22 08:57:52;;;;;;;7.80;1.88;;;;;;;36.85;6.56;100849.03;4935531;29;20463;-66
2022/03/22 09:00:19;;;;;;;;;;;;;;;36.62;6.52;100844.63;4933412;29;20044;-66
2022/03/22 09:02:50;;;;;;;6.30;2.07;;;;;;;37.16;6.31;100833.09;4935299;29;19966;-66
2022/03/22 09:08:06;;;;;;;4.88;2.58;;;;;;;36.65;5.88;100838.63;4917225;29;20059;-66
2022/03/22 09:10:35;;;;;;;5.55;2.00;;;;;;;37.02;5.74;100844.53;4917685;29;20136;-66
2022/03/22 09:13:03;;;;;;;3.72;1.60;;;;;;;36.74;5.58;100829.97;4916952;29;20107;-66
2022/03/22 09:15:32;;;;;;;8.75;2.17;;;;;;;37.10;5.57;100828.41;4918116;29;20044;-66
2022/03/22 09:18:00;;;;;;;9.88;2.10;;;;;;;38.00;5.63;100831.22;4917354;29;20496;-66
2022/03/22 09:20:31;;;;;;;6.95;2.00;;;;;;;38.85;5.14;100819.00;4917214;29;20486;-66
2022/03/22 09:23:02;;;;;;;13.05;2.22;;;;;;;39.40;4.50;100821.00;4917197;29;20076;-66
2022/03/22 09:25:29;;;;;;;9.40;4.15;;;;;;;37.59;5.30;100823.25;4933332;29;20087;-64
2022/03/22 09:27:56;;;;;;;6.28;2.58;;;;;;;36.84;5.39;100815.50;4923822;29;20461;-64
2022/03/22 09:30:24;;;;;;;13.93;3.00;;;;;;;36.93;5.15;100822.13;4932086;29;20388;-65
2022/03/22 09:32:51;;;;;;;6.55;2.75;;;;;;;36.60;5.28;100821.91;4934487;29;20111;-65
2022/03/22 09:35:19;;;;;;;4.60;1.80;;;;;;;36.59;5.19;100826.06;4932012;29;20175;-64
2022/03/22 09:37:48;;;;;;;5.40;1.73;;;;;;;36.71;5.08;100816.41;4918411;29;20051;-64
2022/03/22 09:40:18;;;;;;;6.63;1.90;;;;;;;36.44;5.20;100810.56;4929673;29;20534;-64
2022/03/22 09:42:46;;;;;;;8.82;2.25;;;;;;;35.93;5.10;100815.16;4917018;29;20427;-65
2022/03/22 09:45:17;;;;;;;4.18;1.85;;;;;;;35.28;5.60;100811.47;4916657;29;20060;-64
2022/03/22 09:47:45;;;;;;;9.38;1.90;;;;;;;30.83;7.29;100813.34;4916631;29;20118;-65
2022/03/22 09:50:15;;;;;;;3.58;1.42;;;;;;;26.83;9.25;100808.88;4928103;29;20499;-65
2022/03/22 09:52:42;;;;;;;5.20;1.85;;;;;;;24.72;10.55;100825.50;4928405;29;20427;-64
2022/03/22 09:55:11;;;;;;;16.05;1.50;;;;;;;23.01;11.23;100808.28;4929790;29;20067;-64
2022/03/22 09:57:38;;;;;;;;;;;;;;;21.52;11.77;100809.84;4934394;29;20082;-64
2022/03/22 10:00:07;;;;;;;16.17;3.85;;;;;;;20.44;12.34;100821.59;4932044;29;20455;-63
2022/03/22 10:02:35;;;;;;;6.47;1.77;;;;;;;19.63;13.43;100811.81;4933988;29;20236;-64
2022/03/22 10:05:03;;;;;;;8.88;1.27;;;;;;;18.81;13.65;100811.81;4914660;29;20058;-64
2022/03/22 10:07:32;;;;;;;11.80;1.17;;;;;;;18.01;13.24;100805.22;4933635;29;20062;-64
2022/03/22 10:10:02;;;;;;;5.55;1.10;;;;;;;17.11;13.84;100806.41;4931932;29;20492;-67
2022/03/22 10:12:32;;;;;;;9.85;1.27;;;;;;;16.70;14.21;100804.47;4916464;29;20392;-66
2022/03/22 10:15:16;;;;;;;5.53;1.20;;;;;;;16.29;14.49;100805.19;4924479;29;20099;-66
2022/03/22 10:17:44;;;;;;;25.92;2.95;;;;;;;15.91;14.67;100803.59;4920268;29;20107;-66
2022/03/22 10:20:23;;;;;;;3.65;1.13;;;;;;;15.69;14.61;100806.69;4931514;29;20055;-67
2022/03/22 10:23:00;;;;;;;5.15;1.10;;;;;;;15.57;14.83;100810.16;4916993;29;20048;-67
2022/03/22 10:25:31;;;;;;;7.85;0.98;;;;;;;15.47;15.34;100810.53;4931543;29;20140;-66
2022/03/22 10:28:01;;;;;;;4.80;1.15;;;;;;;15.42;15.66;100813.53;4927479;29;20111;-67
2022/03/22 10:30:28;;;;;;;7.53;1.20;;;;;;;15.25;15.63;100807.91;4930751;29;20495;-62
2022/03/22 10:32:56;;;;;;;5.32;1.10;;;;;;;15.11;16.12;100796.09;4933206;29;20134;-63
2022/03/22 10:35:25;;;;;;;3.83;1.00;;;;;;;14.95;16.06;100789.34;4931696;29;20080;-63
2022/03/22 10:37:58;;;;;;;2.63;0.95;;;;;;;14.69;16.70;100800.56;4925881;29;20079;-64
2022/03/22 10:40:32;;;;;;;4.60;1.00;;;;;;;14.50;16.46;100788.88;4911110;29;20079;-63
2022/03/22 10:43:02;;;;;;;3.38;1.05;;;;;;;14.26;16.63;100790.47;4933452;29;20090;-64
2022/03/22 10:45:39;;;;;;;6.78;1.20;;;;;;;14.22;16.83;100778.25;4931038;29;20065;-63
2022/03/22 10:48:06;;;;;;;1.55;1.00;;;;;;;14.26;16.67;100796.06;4929140;29;20052;-64
2022/03/22 10:50:38;;;;;;;9.25;1.67;;;;;;;14.19;17.23;100781.72;4929703;29;20134;-63
2022/03/22 10:53:05;;;;;;;2.03;1.02;;;;;;;14.10;17.42;100787.28;4933239;29;20047;-63
2022/03/22 10:55:32;;;;;;;3.72;1.23;;;;;;;14.02;17.44;100784.47;4930842;29;20478;-63
2022/03/22 10:58:01;;;;;;;7.28;1.30;;;;;;;14.10;17.24;100780.88;4933073;29;20423;-63
2022/03/22 11:00:30;;;;;;;3.50;0.90;;;;;;;14.13;17.32;100772.66;4931381;29;20079;-63
2022/03/22 11:02:57;;;;;;;6.35;1.08;;;;;;;14.14;17.11;100781.88;4932841;29;20052;-64
2022/03/22 11:05:27;;;;;;;3.30;1.17;;;;;;;14.10;17.25;100775.28;4931276;29;20055;-62
2022/03/22 11:07:56;;;;;;;10.38;1.10;;;;;;;14.08;17.06;100763.59;4932794;29;20071;-63
2022/03/22 11:10:30;;;;;;;3.05;1.38;;;;;;;13.95;17.29;100770.16;4930888;29;20048;-63
2022/03/22 11:12:58;;;;;;;3.30;1.05;;;;;;;13.90;17.68;100765.53;4932701;29;20094;-63
2022/03/22 11:15:28;;;;;;;2.95;1.48;;;;;;;13.86;17.93;100761.72;4930824;29;20111;-63
2022/03/22 11:17:56;;;;;;;1.93;1.00;;;;;;;13.77;17.96;100760.06;4933592;29;20054;-63
2022/03/22 11:20:25;;;;;;;11.88;1.08;;;;;;;13.81;17.89;100761.88;4930782;29;20375;-63
2022/03/22 11:22:55;;;;;;;10.77;1.50;;;;;;;13.89;17.80;100763.06;4925544;29;20139;-62
2022/03/22 11:25:36;;;;;;;4.93;1.20;;;;;;;13.98;17.76;100747.13;4910618;29;20055;-63
2022/03/22 11:28:13;;;;;;;3.72;1.30;;;;;;;13.88;17.73;100751.03;4932656;29;20533;-63
2022/03/22 11:30:41;;;;;;;3.20;1.10;;;;;;;13.80;17.65;100751.03;4931001;29;20579;-63
2022/03/22 11:36:00;;;;;;;3.15;1.70;;;;;;;13.88;18.03;100750.19;4931723;29;20048;-64
2022/03/22 11:38:41;;;;;;;3.10;0.98;;;;;;;13.92;18.25;100745.63;4932587;29;20078;-64
2022/03/22 11:44:21;;;;;;;3.38;1.20;;;;;;;13.83;17.89;100748.38;4931234;29;20048;-64
2022/03/22 11:47:08;;;;;;;2.15;1.05;;;;;;;13.77;18.44;100743.28;4932382;29;20056;-63
2022/03/22 11:49:52;;;;;;;2.17;1.02;;;;;;;13.75;18.66;100743.59;4914560;29;20150;-65
2022/03/22 11:52:21;;;;;;;2.42;1.10;;;;;;;13.76;18.81;100742.44;4930145;29;20082;-63
2022/03/22 11:55:14;;;;;;;7.57;1.20;;;;;;;13.78;18.39;100745.75;4932417;29;20070;-63
2022/03/22 11:58:10;;;;;;;4.00;1.23;;;;;;;13.72;19.06;100746.22;4931101;29;20138;-63
2022/03/22 12:00:55;;;;;;;6.45;1.58;;;;;;;13.60;19.28;100743.22;4930539;29;20112;-64
2022/03/22 12:03:30;;;;;;;6.57;1.20;;;;;;;13.57;19.31;100741.91;4932724;29;20059;-64
2022/03/22 12:06:11;;;;;;;5.70;1.45;;;;;;;13.61;19.75;100740.09;4930407;29;20491;-68
2022/03/22 12:08:41;;;;;;;7.93;2.67;;;;;;;13.65;19.39;100740.28;4931269;29;20055;-67